createdAt,value
2022-11-28T00:01:35.378Z,13.15
2022-11-28T00:04:02.751Z,12.05
2022-11-28T00:06:33.182Z,10.88
2022-11-28T00:09:01.246Z,12.20
2022-11-28T00:11:28.335Z,13.88
2022-11-28T00:13:55.579Z,14.32
2022-11-28T00:16:23.527Z,12.05
2022-11-28T00:18:51.520Z,12.88
2022-11-28T00:21:18.846Z,11.65
2022-11-28T00:23:48.855Z,14.23
2022-11-28T00:26:21.659Z,12.52
2022-11-28T00:28:48.817Z,16.65
2022-11-28T00:31:17.611Z,11.15
2022-11-28T00:33:44.783Z,10.98
2022-11-28T00:36:15.368Z,12.85
2022-11-28T00:38:42.948Z,14.48
2022-11-28T00:41:21.173Z,12.95
2022-11-28T00:43:48.810Z,19.42
2022-11-28T00:46:20.375Z,10.65
2022-11-28T00:48:47.418Z,16.15
2022-11-28T00:51:22.170Z,12.13
2022-11-28T00:53:52.995Z,13.57
2022-11-28T00:56:22.307Z,14.73
2022-11-28T00:58:49.966Z,14.85
2022-11-28T01:01:18.352Z,12.65
2022-11-28T01:03:46.039Z,11.93
2022-11-28T01:06:13.344Z,13.98
2022-11-28T01:08:40.441Z,10.10
2022-11-28T01:11:14.055Z,14.73
2022-11-28T01:13:41.510Z,8.02
2022-11-28T01:16:08.924Z,11.02
2022-11-28T01:18:36.442Z,13.20
2022-11-28T01:21:03.790Z,11.27
2022-11-28T01:23:30.967Z,11.32
2022-11-28T01:25:58.271Z,13.80
2022-11-28T01:28:25.378Z,14.60
2022-11-28T01:30:52.449Z,9.80
2022-11-28T01:33:19.741Z,10.82
2022-11-28T01:35:56.921Z,14.45
2022-11-28T01:38:24.461Z,13.48
2022-11-28T01:40:51.686Z,15.07
2022-11-28T01:43:19.021Z,11.65
2022-11-28T01:45:46.359Z,13.98
2022-11-28T01:48:16.084Z,8.40
2022-11-28T01:50:43.973Z,10.73
2022-11-28T01:53:12.216Z,11.68
2022-11-28T01:55:59.376Z,9.88
2022-11-28T01:58:26.855Z,9.27
2022-11-28T02:00:54.227Z,10.68
2022-11-28T02:03:48.103Z,10.93
2022-11-28T02:06:19.895Z,11.57
2022-11-28T02:08:47.076Z,13.77
2022-11-28T02:11:31.709Z,14.82
2022-11-28T02:14:29.611Z,11.45
2022-11-28T02:17:24.473Z,13.38
2022-11-28T02:20:22.391Z,7.70
2022-11-28T02:23:08.498Z,9.05
2022-11-28T02:25:38.454Z,11.02
2022-11-28T02:28:36.354Z,10.73
2022-11-28T02:31:20.908Z,13.82
2022-11-28T02:33:57.833Z,12.95
2022-11-28T02:36:30.263Z,8.75
2022-11-28T02:39:14.114Z,8.98
2022-11-28T02:41:44.250Z,13.65
2022-11-28T02:44:32.451Z,9.52
2022-11-28T02:47:33.093Z,10.80
2022-11-28T02:52:49.580Z,11.68
2022-11-28T02:55:16.879Z,11.50
2022-11-28T02:57:48.709Z,10.50
2022-11-28T03:00:25.753Z,9.30
2022-11-28T03:03:15.922Z,7.75
2022-11-28T03:06:08.946Z,8.57
2022-11-28T03:08:47.027Z,11.90
2022-11-28T03:11:23.579Z,9.98
2022-11-28T03:14:13.191Z,12.05
2022-11-28T03:16:56.187Z,7.30
2022-11-28T03:19:30.989Z,10.63
2022-11-28T03:22:24.583Z,8.68
2022-11-28T03:25:13.735Z,12.38
2022-11-28T03:27:46.192Z,8.18
2022-11-28T03:30:32.308Z,9.88
2022-11-28T03:32:59.806Z,14.75
2022-11-28T03:35:29.400Z,8.18
2022-11-28T03:38:00.603Z,11.97
2022-11-28T03:40:30.122Z,10.20
2022-11-28T03:43:10.066Z,11.07
2022-11-28T03:45:39.528Z,11.32
2022-11-28T03:48:30.430Z,11.65
2022-11-28T03:51:22.478Z,9.23
2022-11-28T03:53:56.000Z,13.43
2022-11-28T03:56:29.203Z,7.03
2022-11-28T03:58:56.346Z,10.80
2022-11-28T04:01:37.185Z,10.55
2022-11-28T04:04:08.206Z,8.45
2022-11-28T04:06:43.980Z,9.70
2022-11-28T04:09:14.607Z,11.95
2022-11-28T04:11:52.562Z,13.25
2022-11-28T04:14:32.777Z,12.68
2022-11-28T04:17:07.088Z,9.45
2022-11-28T04:19:35.379Z,12.70
2022-11-28T04:22:05.310Z,14.95
2022-11-28T04:24:45.694Z,12.00
2022-11-28T04:27:15.630Z,11.98
2022-11-28T04:29:53.643Z,11.50
2022-11-28T04:32:22.028Z,10.05
2022-11-28T04:34:55.243Z,8.57
2022-11-28T04:37:22.435Z,9.93
2022-11-28T04:39:49.540Z,9.77
2022-11-28T04:42:32.116Z,9.65
2022-11-28T04:45:18.143Z,9.90
2022-11-28T04:47:45.445Z,11.75
2022-11-28T04:50:13.689Z,7.90
2022-11-28T04:52:54.940Z,14.43
2022-11-28T04:55:46.965Z,11.45
2022-11-28T04:58:34.195Z,7.50
2022-11-28T05:01:01.495Z,11.63
2022-11-28T05:03:28.855Z,11.63
2022-11-28T05:05:56.058Z,5.65
2022-11-28T05:08:23.442Z,9.80
2022-11-28T05:10:50.461Z,6.23
2022-11-28T05:13:18.115Z,8.02
2022-11-28T05:15:45.415Z,8.57
2022-11-28T05:18:12.738Z,10.13
2022-11-28T05:20:40.136Z,6.37
2022-11-28T05:23:07.375Z,8.37
2022-11-28T05:25:34.437Z,9.00
2022-11-28T05:28:01.649Z,9.65
2022-11-28T05:30:28.787Z,12.20
2022-11-28T05:32:56.402Z,9.73
2022-11-28T05:35:23.747Z,8.68
2022-11-28T05:37:51.253Z,8.85
2022-11-28T05:40:18.303Z,11.15
2022-11-28T05:42:46.127Z,9.25
2022-11-28T05:45:13.549Z,9.10
2022-11-28T05:47:40.593Z,9.47
2022-11-28T05:50:08.406Z,11.50
2022-11-28T05:52:35.488Z,9.93
2022-11-28T05:55:02.702Z,12.37
2022-11-28T05:57:30.368Z,14.00
2022-11-28T05:59:57.666Z,13.50
2022-11-28T06:02:25.210Z,11.67
2022-11-28T06:04:52.477Z,12.00
2022-11-28T06:07:20.030Z,10.48
2022-11-28T06:09:47.181Z,11.40
2022-11-28T06:12:14.501Z,15.47
2022-11-28T06:14:41.781Z,8.82
2022-11-28T06:17:08.925Z,9.47
2022-11-28T06:19:36.193Z,9.52
2022-11-28T06:22:03.485Z,7.03
2022-11-28T06:24:30.538Z,8.30
2022-11-28T06:26:57.793Z,7.70
2022-11-28T06:29:25.062Z,8.63
2022-11-28T06:31:52.209Z,8.23
2022-11-28T06:34:19.295Z,6.60
2022-11-28T06:36:46.487Z,10.23
2022-11-28T06:39:14.886Z,7.33
2022-11-28T06:41:42.935Z,8.67
2022-11-28T06:44:16.599Z,10.43
2022-11-28T06:46:44.159Z,10.17
2022-11-28T06:49:13.047Z,10.60
2022-11-28T06:51:40.876Z,7.80
2022-11-28T06:54:08.365Z,8.67
2022-11-28T06:56:35.524Z,8.33
2022-11-28T06:59:03.591Z,7.90
2022-11-28T07:01:31.280Z,10.07
2022-11-28T07:03:58.595Z,6.87
2022-11-28T07:06:26.370Z,6.03
2022-11-28T07:08:53.911Z,9.40
2022-11-28T07:11:28.362Z,8.10
2022-11-28T07:13:55.673Z,7.53
2022-11-28T07:16:24.683Z,10.90
2022-11-28T07:18:51.952Z,8.57
2022-11-28T07:21:19.554Z,7.10
2022-11-28T07:23:47.161Z,5.47
2022-11-28T07:26:15.690Z,9.30
2022-11-28T07:28:43.594Z,7.83
2022-11-28T07:31:17.674Z,8.40
2022-11-28T07:33:46.120Z,9.23
2022-11-28T07:36:17.272Z,9.80
2022-11-28T07:38:49.591Z,10.27
2022-11-28T07:41:17.023Z,7.03
2022-11-28T07:43:45.057Z,7.17
2022-11-28T07:46:14.486Z,4.67
2022-11-28T07:48:41.672Z,7.43
2022-11-28T07:51:10.557Z,9.90
2022-11-28T07:53:37.999Z,7.03
2022-11-28T07:56:06.206Z,10.40
2022-11-28T07:58:33.873Z,9.07
2022-11-28T08:01:01.084Z,10.43
2022-11-28T08:03:28.327Z,9.70
2022-11-28T08:06:02.913Z,6.23
2022-11-28T08:08:30.614Z,10.57
2022-11-28T08:11:02.088Z,7.03
2022-11-28T08:13:29.380Z,8.33
2022-11-28T08:15:56.649Z,10.53
2022-11-28T08:18:24.204Z,10.07
2022-11-28T08:20:53.868Z,8.40
2022-11-28T08:23:21.486Z,7.93
2022-11-28T08:25:48.612Z,9.27
2022-11-28T08:28:18.636Z,11.90
2022-11-28T08:30:46.231Z,10.85
2022-11-28T08:33:13.911Z,8.60
2022-11-28T08:35:43.919Z,9.37
2022-11-28T08:38:14.252Z,12.25
2022-11-28T08:40:41.732Z,9.50
2022-11-28T08:43:08.778Z,7.05
2022-11-28T08:45:39.098Z,10.85
2022-11-28T08:50:33.963Z,9.17
2022-11-28T08:53:07.604Z,6.05
2022-11-28T08:55:40.473Z,10.73
2022-11-28T08:58:08.137Z,10.38
2022-11-28T09:00:35.507Z,9.05
2022-11-28T09:03:02.627Z,14.15
2022-11-28T09:05:30.317Z,11.32
2022-11-28T09:07:57.708Z,9.52
2022-11-28T09:10:25.251Z,10.30
2022-11-28T09:12:52.648Z,11.77
2022-11-28T09:15:19.754Z,8.43
2022-11-28T09:17:46.970Z,12.07
2022-11-28T09:20:14.365Z,8.90
2022-11-28T09:22:42.924Z,9.95
2022-11-28T09:25:10.198Z,8.27
2022-11-28T09:27:37.462Z,6.72
2022-11-28T09:30:05.159Z,9.05
2022-11-28T09:32:32.232Z,7.25
2022-11-28T09:34:59.610Z,6.18
2022-11-28T09:37:28.430Z,6.97
2022-11-28T09:40:12.535Z,6.45
2022-11-28T09:42:43.973Z,7.47
2022-11-28T09:45:19.066Z,7.90
2022-11-28T09:47:51.985Z,8.43
2022-11-28T09:50:24.309Z,10.23
2022-11-28T09:53:08.313Z,8.57
2022-11-28T09:55:47.531Z,12.70
2022-11-28T09:58:26.816Z,11.70
2022-11-28T10:01:03.307Z,8.65
2022-11-28T10:03:39.702Z,10.02
2022-11-28T10:06:15.641Z,8.90
2022-11-28T10:09:03.100Z,9.82
2022-11-28T10:12:05.757Z,10.85
2022-11-28T10:14:35.957Z,5.32
2022-11-28T10:17:34.847Z,10.10
2022-11-28T10:20:27.319Z,8.73
2022-11-28T10:23:18.815Z,5.57
2022-11-28T10:26:00.389Z,7.82
2022-11-28T10:28:31.053Z,6.40
2022-11-28T10:31:08.013Z,7.90
2022-11-28T10:33:40.563Z,7.40
2022-11-28T10:36:10.121Z,6.47
2022-11-28T10:38:37.258Z,11.32
2022-11-28T10:41:17.891Z,6.38
2022-11-28T10:43:45.031Z,8.23
2022-11-28T10:46:31.164Z,7.28
2022-11-28T10:49:29.643Z,6.10
2022-11-28T10:52:12.913Z,7.32
2022-11-28T10:55:28.506Z,7.88
2022-11-28T10:58:09.434Z,4.65
2022-11-28T11:00:36.759Z,8.35
2022-11-28T11:03:04.045Z,3.75
2022-11-28T11:05:33.061Z,5.55
2022-11-28T11:08:04.761Z,3.65
2022-11-28T11:10:51.548Z,4.03
2022-11-28T11:13:23.998Z,7.95
2022-11-28T11:16:07.896Z,4.40
2022-11-28T11:18:51.191Z,4.57
2022-11-28T11:21:23.354Z,5.35
2022-11-28T11:24:06.598Z,3.65
2022-11-28T11:26:36.223Z,5.03
2022-11-28T11:29:05.534Z,4.30
2022-11-28T11:31:43.252Z,5.47
2022-11-28T11:34:15.844Z,5.40
2022-11-28T11:36:43.255Z,4.30
2022-11-28T11:39:17.146Z,3.95
2022-11-28T11:41:45.609Z,2.65
2022-11-28T11:44:15.920Z,4.47
2022-11-28T11:47:10.400Z,6.28
2022-11-28T11:49:44.747Z,6.22
2022-11-28T11:52:15.301Z,5.80
2022-11-28T11:54:58.209Z,4.88
2022-11-28T11:57:34.183Z,5.32
2022-11-28T12:00:07.169Z,5.57
2022-11-28T12:02:45.549Z,3.92
2022-11-28T12:05:18.132Z,7.30
2022-11-28T12:08:04.359Z,5.45
2022-11-28T12:10:34.683Z,5.68
2022-11-28T12:13:05.044Z,4.85
2022-11-28T12:20:49.593Z,3.00
2022-11-28T12:23:21.830Z,5.85
2022-11-28T12:25:56.542Z,3.97
2022-11-28T12:28:30.752Z,3.20
2022-11-28T12:31:23.405Z,5.72
2022-11-28T12:33:56.778Z,8.48
2022-11-28T12:36:32.507Z,4.18
2022-11-28T12:39:19.161Z,4.10
2022-11-28T12:42:09.739Z,6.00
2022-11-28T12:47:19.547Z,4.40
2022-11-28T12:50:24.138Z,4.25
2022-11-28T12:53:23.220Z,2.90
2022-11-28T12:56:02.733Z,7.63
2022-11-28T12:58:57.618Z,4.73
2022-11-28T13:06:12.767Z,5.30
2022-11-28T13:09:07.604Z,5.40
2022-11-28T13:12:03.927Z,6.63
2022-11-28T13:14:52.458Z,6.63
2022-11-28T13:17:29.432Z,5.18
2022-11-28T13:20:04.037Z,5.05
2022-11-28T13:22:52.924Z,4.50
2022-11-28T13:25:39.989Z,4.10
2022-11-28T13:28:10.016Z,8.13
2022-11-28T13:30:51.735Z,7.72
2022-11-28T13:33:37.320Z,4.50
2022-11-28T13:36:05.510Z,5.88
2022-11-28T13:38:54.256Z,6.75
2022-11-28T13:45:08.342Z,4.80
2022-11-28T13:47:36.676Z,7.13
2022-11-28T13:50:26.044Z,7.75
2022-11-28T13:53:00.940Z,9.05
2022-11-28T13:55:44.086Z,4.75
2022-11-28T13:58:28.724Z,3.95
2022-11-28T14:01:24.145Z,4.80
2022-11-28T14:04:04.574Z,7.22
2022-11-28T14:06:40.927Z,6.15
2022-11-28T14:09:12.987Z,7.47
2022-11-28T14:12:02.397Z,5.55
2022-11-28T14:14:54.843Z,5.07
2022-11-28T14:17:36.054Z,5.20
2022-11-28T14:20:16.824Z,4.18
2022-11-28T14:22:54.211Z,6.20
2022-11-28T14:25:40.817Z,3.95
2022-11-28T14:28:26.327Z,6.97
2022-11-28T14:31:13.575Z,5.10
2022-11-28T14:33:43.107Z,4.13
2022-11-28T14:36:29.780Z,3.97
2022-11-28T14:39:08.699Z,5.15
2022-11-28T14:42:04.117Z,5.28
2022-11-28T14:44:57.317Z,6.22
2022-11-28T14:47:24.384Z,5.28
2022-11-28T14:50:17.387Z,5.43
2022-11-28T14:52:46.551Z,5.00
2022-11-28T14:55:18.430Z,4.88
2022-11-28T14:57:53.372Z,5.03
2022-11-28T15:00:28.291Z,3.92
2022-11-28T15:03:05.147Z,5.90
2022-11-28T15:05:47.746Z,6.22
2022-11-28T15:08:35.307Z,4.60
2022-11-28T15:11:25.990Z,7.35
2022-11-28T15:14:15.746Z,8.20
2022-11-28T15:16:50.556Z,4.30
2022-11-28T15:19:26.277Z,6.75
2022-11-28T15:21:54.664Z,9.95
2022-11-28T15:24:35.450Z,6.85
2022-11-28T15:27:12.113Z,7.88
2022-11-28T15:29:40.179Z,8.30
2022-11-28T15:32:13.316Z,5.18
2022-11-28T15:34:41.066Z,5.80
2022-11-28T15:37:17.519Z,5.35
2022-11-28T15:39:46.868Z,5.13
2022-11-28T15:42:33.779Z,5.40
2022-11-28T15:45:20.082Z,6.47
2022-11-28T15:47:49.375Z,6.72
2022-11-28T15:50:19.552Z,7.03
2022-11-28T15:52:57.420Z,8.23
2022-11-28T15:55:25.475Z,7.00
2022-11-28T15:58:20.057Z,6.00
2022-11-28T16:01:10.556Z,9.63
2022-11-28T16:04:00.420Z,9.10
2022-11-28T16:09:19.783Z,6.32
2022-11-28T16:11:50.512Z,6.30
2022-11-28T16:14:29.539Z,7.70
2022-11-28T16:16:58.173Z,7.55
2022-11-28T16:19:33.041Z,7.75
2022-11-28T16:22:10.457Z,9.85
2022-11-28T16:24:49.364Z,5.90
2022-11-28T16:27:45.625Z,6.78
2022-11-28T16:30:32.976Z,7.05
2022-11-28T16:33:00.244Z,9.48
2022-11-28T16:35:27.852Z,8.40
2022-11-28T16:38:05.275Z,8.57
2022-11-28T16:40:32.596Z,8.93
2022-11-28T16:42:59.908Z,12.15
2022-11-28T16:45:32.839Z,7.43
2022-11-28T16:48:08.920Z,6.55
2022-11-28T16:50:36.749Z,7.63
2022-11-28T16:53:04.623Z,7.00
2022-11-28T16:55:34.334Z,6.63
2022-11-28T16:58:07.488Z,10.65
2022-11-28T17:00:35.121Z,6.88
2022-11-28T17:03:02.512Z,6.72
2022-11-28T17:05:29.983Z,4.50
2022-11-28T17:07:57.570Z,5.32
2022-11-28T17:10:27.828Z,4.82
2022-11-28T17:12:55.118Z,5.45
2022-11-28T17:15:25.414Z,5.10
2022-11-28T17:17:55.798Z,6.50
2022-11-28T17:20:23.333Z,4.63
2022-11-28T17:22:51.339Z,6.43
2022-11-28T17:25:25.699Z,5.55
2022-11-28T17:27:53.691Z,16.60
2022-11-28T17:30:21.031Z,24.25
2022-11-28T17:32:48.674Z,21.75
2022-11-28T17:35:22.049Z,17.48
2022-11-28T17:37:49.247Z,9.50
2022-11-28T17:40:39.677Z,6.75
2022-11-28T17:43:39.600Z,9.18
2022-11-28T17:46:07.032Z,7.45
2022-11-28T17:48:34.838Z,8.32
2022-11-28T17:51:04.837Z,7.20
2022-11-28T17:53:45.589Z,8.50
2022-11-28T17:56:13.116Z,11.57
2022-11-28T17:58:40.358Z,7.45
2022-11-28T18:01:40.851Z,6.97
2022-11-28T18:04:11.752Z,7.47
2022-11-28T18:06:40.176Z,7.53
2022-11-28T18:09:31.446Z,8.38
2022-11-28T18:12:18.814Z,9.65
2022-11-28T18:15:14.924Z,9.27
2022-11-28T18:17:43.012Z,11.38
2022-11-28T18:20:11.793Z,8.05
2022-11-28T18:23:12.291Z,9.32
2022-11-28T18:25:44.551Z,10.95
2022-11-28T18:28:18.828Z,6.13
2022-11-28T18:36:13.101Z,11.85
2022-11-28T18:38:53.922Z,9.82
2022-11-28T18:41:22.185Z,10.02
2022-11-28T18:43:50.642Z,8.60
2022-11-28T18:46:34.616Z,7.13
2022-11-28T18:49:02.199Z,8.85
2022-11-28T18:51:32.009Z,9.13
2022-11-28T18:54:21.402Z,7.07
2022-11-28T18:57:24.698Z,7.80
2022-11-28T18:59:55.284Z,5.43
2022-11-28T19:02:36.717Z,4.88
2022-11-28T19:05:41.933Z,4.03
2022-11-28T19:08:11.575Z,5.43
2022-11-28T19:10:42.026Z,5.47
2022-11-28T19:17:39.596Z,5.57
2022-11-28T19:20:11.663Z,8.48
2022-11-28T19:23:13.624Z,4.72
2022-11-28T19:25:46.769Z,4.60
2022-11-28T19:28:16.413Z,4.95
2022-11-28T19:30:43.813Z,6.33
2022-11-28T19:38:37.723Z,3.67
2022-11-28T19:41:35.080Z,4.10
2022-11-28T19:44:50.315Z,3.72
2022-11-28T19:47:46.669Z,4.18
2022-11-28T19:50:13.925Z,2.85
2022-11-28T19:52:40.934Z,3.13
2022-11-28T19:55:10.840Z,7.38
2022-11-28T19:57:38.511Z,3.13
2022-11-28T20:00:06.551Z,5.07
2022-11-28T20:02:56.865Z,6.47
2022-11-28T20:05:24.967Z,5.88
2022-11-28T20:11:28.214Z,6.80
2022-11-28T20:13:57.496Z,9.15
2022-11-28T20:16:25.090Z,8.40
2022-11-28T20:18:55.048Z,8.85
2022-11-28T20:21:23.018Z,8.30
2022-11-28T20:23:52.120Z,10.52
2022-11-28T20:26:24.006Z,7.57
2022-11-28T20:28:54.581Z,8.52
2022-11-28T20:34:04.460Z,7.40
2022-11-28T20:36:43.920Z,7.20
2022-11-28T20:39:11.932Z,6.50
2022-11-28T20:41:39.025Z,8.18
2022-11-28T20:44:06.268Z,9.38
2022-11-28T20:46:35.747Z,6.95
2022-11-28T20:49:06.788Z,10.07
2022-11-28T20:51:34.744Z,9.38
2022-11-28T20:54:02.108Z,12.50
2022-11-28T20:56:30.628Z,6.65
2022-11-28T20:59:01.769Z,8.30
2022-11-28T21:01:30.823Z,8.48
2022-11-28T21:03:58.610Z,7.47
2022-11-28T21:06:27.477Z,7.75
2022-11-28T21:09:00.765Z,8.18
2022-11-28T21:11:56.349Z,8.15
2022-11-28T21:14:24.371Z,9.95
2022-11-28T21:16:51.873Z,8.63
2022-11-28T21:19:18.978Z,11.80
2022-11-28T21:21:46.272Z,9.00
2022-11-28T21:24:13.873Z,9.38
2022-11-28T21:26:46.371Z,6.55
2022-11-28T21:29:17.125Z,10.38
2022-11-28T21:31:44.540Z,9.13
2022-11-28T21:34:16.796Z,7.97
2022-11-28T21:36:44.574Z,7.13
2022-11-28T21:43:03.896Z,8.40
2022-11-28T21:45:34.272Z,8.98
2022-11-28T21:48:02.774Z,8.32
2022-11-28T21:50:30.059Z,7.55
2022-11-28T21:53:01.860Z,8.55
2022-11-28T21:55:38.769Z,7.13
2022-11-28T21:58:10.919Z,7.97
2022-11-28T22:01:01.146Z,8.13
2022-11-28T22:03:35.282Z,8.85
2022-11-28T22:06:10.015Z,7.50
2022-11-28T22:08:39.974Z,9.18
2022-11-28T22:11:13.357Z,10.77
2022-11-28T22:13:42.956Z,9.98
2022-11-28T22:16:11.893Z,9.57
2022-11-28T22:18:39.139Z,9.60
2022-11-28T22:21:28.729Z,10.00
2022-11-28T22:24:17.173Z,9.60
2022-11-28T22:26:44.453Z,9.27
2022-11-28T22:29:13.050Z,8.93
2022-11-28T22:31:41.711Z,11.25
2022-11-28T22:34:09.645Z,12.45
2022-11-28T22:36:36.916Z,12.65
2022-11-28T22:39:04.896Z,13.18
2022-11-28T22:41:32.405Z,12.52
2022-11-28T22:44:01.259Z,12.30
2022-11-28T22:46:30.218Z,16.45
2022-11-28T22:49:02.207Z,10.90
2022-11-28T22:51:30.554Z,13.25
2022-11-28T22:53:59.796Z,15.32
2022-11-28T22:56:29.356Z,13.00
2022-11-28T22:58:58.409Z,12.20
2022-11-28T23:01:29.827Z,13.20
2022-11-28T23:04:00.735Z,10.82
2022-11-28T23:06:32.790Z,13.93
2022-11-28T23:09:00.749Z,12.35
2022-11-28T23:11:30.650Z,11.90
2022-11-28T23:13:59.059Z,11.57
2022-11-28T23:16:32.860Z,10.68
2022-11-28T23:19:01.638Z,13.10
2022-11-28T23:21:38.822Z,12.32
2022-11-28T23:24:07.005Z,11.95
2022-11-28T23:26:34.398Z,12.93
2022-11-28T23:29:03.783Z,13.98
2022-11-28T23:31:33.510Z,10.55
2022-11-28T23:34:01.182Z,12.75
2022-11-28T23:36:29.800Z,14.63
2022-11-28T23:39:00.143Z,13.98
2022-11-28T23:41:27.691Z,13.70
2022-11-28T23:43:54.831Z,12.95
2022-11-28T23:46:22.436Z,13.98
2022-11-28T23:48:50.162Z,12.82
2022-11-28T23:51:18.633Z,13.60
2022-11-28T23:53:46.102Z,14.02
2022-11-28T23:56:17.126Z,11.93
2022-11-28T23:58:44.407Z,14.45
